createdAt,value
2022-10-19T00:01:22.437Z,85.25
2022-10-19T00:03:54.132Z,85.79
2022-10-19T00:06:27.834Z,85.78
2022-10-19T00:09:00.980Z,85.57
2022-10-19T00:11:31.046Z,85.53
2022-10-19T00:14:01.374Z,85.49
2022-10-19T00:16:34.660Z,85.48
2022-10-19T00:19:07.396Z,85.57
2022-10-19T00:21:35.616Z,85.70
2022-10-19T00:24:03.863Z,85.86
2022-10-19T00:26:33.127Z,86.04
2022-10-19T00:29:01.804Z,86.21
2022-10-19T00:31:29.911Z,86.36
2022-10-19T00:33:59.293Z,86.46
2022-10-19T00:36:32.026Z,86.58
2022-10-19T00:39:01.178Z,86.63
2022-10-19T00:41:32.578Z,86.60
2022-10-19T00:44:04.258Z,86.51
2022-10-19T00:46:35.816Z,86.52
2022-10-19T00:49:16.260Z,86.50
2022-10-19T00:51:49.290Z,86.76
2022-10-19T00:54:18.852Z,86.69
2022-10-19T00:56:50.551Z,86.78
2022-10-19T00:59:21.871Z,86.79
2022-10-19T01:01:50.375Z,86.71
2022-10-19T01:04:22.141Z,86.92
2022-10-19T01:09:24.439Z,86.90
2022-10-19T01:12:38.128Z,86.81
2022-10-19T01:15:32.075Z,86.93
2022-10-19T01:18:15.242Z,86.99
2022-10-19T01:21:22.339Z,87.18
2022-10-19T01:24:08.243Z,87.17
2022-10-19T01:27:19.844Z,87.26
2022-10-19T01:29:54.767Z,87.25
2022-10-19T01:32:41.909Z,87.44
2022-10-19T01:35:36.363Z,87.43
2022-10-19T01:38:35.157Z,87.70
2022-10-19T01:41:17.599Z,87.59
2022-10-19T01:44:04.173Z,87.63
2022-10-19T01:46:43.782Z,87.61
2022-10-19T01:49:21.258Z,87.63
2022-10-19T01:52:04.452Z,87.65
2022-10-19T01:54:39.763Z,87.71
2022-10-19T01:57:12.599Z,87.72
2022-10-19T01:59:42.349Z,87.73
2022-10-19T02:02:13.753Z,87.75
2022-10-19T02:04:43.223Z,87.76
2022-10-19T02:07:11.707Z,87.86
2022-10-19T02:09:39.700Z,87.71
2022-10-19T02:12:11.295Z,87.67
2022-10-19T02:14:52.540Z,87.77
2022-10-19T02:17:28.597Z,87.76
2022-10-19T02:19:58.127Z,87.79
2022-10-19T02:22:26.080Z,87.96
2022-10-19T02:24:54.006Z,88.01
2022-10-19T02:27:22.177Z,87.97
2022-10-19T02:29:50.328Z,87.93
2022-10-19T02:32:18.349Z,88.04
2022-10-19T02:34:46.532Z,88.01
2022-10-19T02:37:14.547Z,87.93
2022-10-19T02:39:42.543Z,87.78
2022-10-19T02:42:17.927Z,87.89
2022-10-19T02:45:09.049Z,87.87
2022-10-19T02:47:47.287Z,87.73
2022-10-19T02:50:16.424Z,87.63
2022-10-19T02:52:44.335Z,87.81
2022-10-19T02:55:12.530Z,87.94
2022-10-19T02:57:40.389Z,88.15
2022-10-19T03:00:09.784Z,88.11
2022-10-19T03:02:37.812Z,88.25
2022-10-19T03:05:06.307Z,88.34
2022-10-19T03:07:34.778Z,88.50
2022-10-19T03:10:03.612Z,88.42
2022-10-19T03:12:31.478Z,88.30
2022-10-19T03:14:59.348Z,88.31
2022-10-19T03:17:27.268Z,88.44
2022-10-19T03:19:55.672Z,88.50
2022-10-19T03:22:23.522Z,88.40
2022-10-19T03:24:51.297Z,88.44
2022-10-19T03:27:19.151Z,88.41
2022-10-19T03:29:47.040Z,88.44
2022-10-19T03:32:14.953Z,88.51
2022-10-19T03:34:42.871Z,88.72
2022-10-19T03:37:13.445Z,88.83
2022-10-19T03:39:42.012Z,88.82
2022-10-19T03:42:09.911Z,88.71
2022-10-19T03:44:37.820Z,88.68
2022-10-19T03:47:05.745Z,88.77
2022-10-19T03:49:34.680Z,88.83
2022-10-19T03:52:04.944Z,88.74
2022-10-19T03:54:32.792Z,88.78
2022-10-19T03:57:00.679Z,88.81
2022-10-19T03:59:28.520Z,88.87
2022-10-19T04:01:56.338Z,88.85
2022-10-19T04:04:24.170Z,88.82
2022-10-19T04:06:53.920Z,88.68
2022-10-19T04:09:23.100Z,88.89
2022-10-19T04:11:51.250Z,88.78
2022-10-19T04:14:31.926Z,88.74
2022-10-19T04:17:02.573Z,88.64
2022-10-19T04:19:31.798Z,88.53
2022-10-19T04:21:59.963Z,88.61
2022-10-19T04:24:28.464Z,88.48
2022-10-19T04:26:56.925Z,88.55
2022-10-19T04:29:29.738Z,88.57
2022-10-19T04:31:59.645Z,88.54
2022-10-19T04:34:27.653Z,88.60
2022-10-19T04:36:55.693Z,88.71
2022-10-19T04:39:23.481Z,88.88
2022-10-19T04:41:51.351Z,88.84
2022-10-19T04:44:19.911Z,88.83
2022-10-19T04:46:47.839Z,88.79
2022-10-19T04:49:18.015Z,88.86
2022-10-19T04:51:48.067Z,88.87
2022-10-19T04:54:15.985Z,88.81
2022-10-19T04:56:43.960Z,88.73
2022-10-19T04:59:11.926Z,88.75
2022-10-19T05:01:46.426Z,88.82
2022-10-19T05:04:15.497Z,88.86
2022-10-19T05:06:43.558Z,88.91
2022-10-19T05:09:11.658Z,88.85
2022-10-19T05:11:40.199Z,88.82
2022-10-19T05:14:08.111Z,88.84
2022-10-19T05:16:36.091Z,88.97
2022-10-19T05:19:04.023Z,88.99
2022-10-19T05:21:31.956Z,88.99
2022-10-19T05:23:59.853Z,88.98
2022-10-19T05:26:29.634Z,88.98
2022-10-19T05:29:04.920Z,89.01
2022-10-19T05:31:34.795Z,88.87
2022-10-19T05:34:04.134Z,88.82
2022-10-19T05:36:39.199Z,88.73
2022-10-19T05:39:13.619Z,88.74
2022-10-19T05:41:45.002Z,88.72
2022-10-19T05:44:21.387Z,88.91
2022-10-19T05:46:51.463Z,89.01
2022-10-19T05:49:22.018Z,88.87
2022-10-19T05:51:50.697Z,88.95
2022-10-19T05:54:21.764Z,88.90
2022-10-19T05:56:51.663Z,88.85
2022-10-19T05:59:21.600Z,88.80
2022-10-19T06:01:49.525Z,88.86
2022-10-19T06:06:50.191Z,89.11
2022-10-19T06:09:18.014Z,89.05
2022-10-19T06:11:46.507Z,88.89
2022-10-19T06:14:16.117Z,89.04
2022-10-19T06:16:46.113Z,88.94
2022-10-19T06:19:14.492Z,88.98
2022-10-19T06:21:45.913Z,89.05
2022-10-19T06:24:14.376Z,89.11
2022-10-19T06:26:42.453Z,89.09
2022-10-19T06:29:10.932Z,89.07
2022-10-19T06:31:38.890Z,88.92
2022-10-19T06:34:07.347Z,88.95
2022-10-19T06:36:35.568Z,88.91
2022-10-19T06:39:03.721Z,88.83
2022-10-19T06:41:32.674Z,88.74
2022-10-19T06:44:06.322Z,88.75
2022-10-19T06:46:34.205Z,88.75
2022-10-19T06:49:03.080Z,88.62
2022-10-19T06:51:34.172Z,88.52
2022-10-19T06:54:02.077Z,88.54
2022-10-19T06:56:30.025Z,88.50
2022-10-19T06:58:58.755Z,88.37
2022-10-19T07:01:26.807Z,88.25
2022-10-19T07:03:55.345Z,88.17
2022-10-19T07:06:23.986Z,88.20
2022-10-19T07:08:52.422Z,88.11
2022-10-19T07:11:22.663Z,88.02
2022-10-19T07:13:53.561Z,88.01
2022-10-19T07:16:22.130Z,88.00
2022-10-19T07:18:52.884Z,87.99
2022-10-19T07:21:23.922Z,87.98
2022-10-19T07:23:51.844Z,87.93
2022-10-19T07:26:26.868Z,87.82
2022-10-19T07:28:57.749Z,87.82
2022-10-19T07:31:28.372Z,87.71
2022-10-19T07:34:03.530Z,87.63
2022-10-19T07:36:35.820Z,87.56
2022-10-19T07:39:06.937Z,87.52
2022-10-19T07:41:35.130Z,87.42
2022-10-19T07:44:03.447Z,87.30
2022-10-19T07:46:39.175Z,87.22
2022-10-19T07:49:14.491Z,87.03
2022-10-19T07:51:43.159Z,86.94
2022-10-19T07:54:11.350Z,86.76
2022-10-19T07:56:39.689Z,86.70
2022-10-19T07:59:07.763Z,86.58
2022-10-19T08:01:44.710Z,86.33
2022-10-19T08:07:00.431Z,85.81
2022-10-19T08:09:51.567Z,85.71
2022-10-19T08:12:16.092Z,85.52
2022-10-19T08:14:44.051Z,85.18
2022-10-19T08:17:16.641Z,85.09
2022-10-19T08:19:47.048Z,84.74
2022-10-19T08:22:15.083Z,84.61
2022-10-19T08:24:43.001Z,84.58
2022-10-19T08:27:10.898Z,84.07
2022-10-19T08:29:38.808Z,83.61
2022-10-19T08:32:06.661Z,83.55
2022-10-19T08:34:35.097Z,83.63
2022-10-19T08:37:10.315Z,83.70
2022-10-19T08:39:47.957Z,83.60
2022-10-19T08:43:11.184Z,83.44
2022-10-19T08:45:47.092Z,83.21
2022-10-19T08:48:28.514Z,82.77
2022-10-19T08:50:58.592Z,82.55
2022-10-19T08:53:49.980Z,82.80
2022-10-19T08:56:49.351Z,82.72
2022-10-19T08:59:40.580Z,82.47
2022-10-19T09:02:31.424Z,82.34
2022-10-19T09:05:30.453Z,82.20
2022-10-19T09:07:59.434Z,81.82
2022-10-19T09:10:37.274Z,82.14
2022-10-19T09:13:41.368Z,81.72
2022-10-19T09:16:19.777Z,81.57
2022-10-19T09:18:47.641Z,81.81
2022-10-19T09:21:30.152Z,80.87
2022-10-19T09:24:16.237Z,80.31
2022-10-19T09:26:54.517Z,80.62
2022-10-19T09:29:44.449Z,80.34
2022-10-19T09:32:39.529Z,80.08
2022-10-19T09:35:20.636Z,79.68
2022-10-19T09:37:51.270Z,79.72
2022-10-19T09:40:23.607Z,79.66
2022-10-19T09:42:57.058Z,79.11
2022-10-19T09:45:55.940Z,78.41
2022-10-19T09:48:44.407Z,78.74
2022-10-19T09:51:15.465Z,78.30
2022-10-19T09:54:01.543Z,78.26
2022-10-19T09:56:29.660Z,78.22
2022-10-19T09:58:59.020Z,77.97
2022-10-19T10:01:41.579Z,77.73
2022-10-19T10:04:17.540Z,77.91
2022-10-19T10:06:48.565Z,77.47
2022-10-19T10:09:22.145Z,77.01
2022-10-19T10:11:51.692Z,77.06
2022-10-19T10:14:40.115Z,77.43
2022-10-19T10:17:18.114Z,77.15
2022-10-19T10:20:30.441Z,76.70
2022-10-19T10:23:05.156Z,76.75
2022-10-19T10:25:36.621Z,76.33
2022-10-19T10:28:24.338Z,75.50
2022-10-19T10:31:03.684Z,75.43
2022-10-19T10:36:29.319Z,74.69
2022-10-19T10:39:08.274Z,74.61
2022-10-19T10:41:44.391Z,74.45
2022-10-19T10:44:23.659Z,74.12
2022-10-19T10:46:58.729Z,74.29
2022-10-19T10:49:36.727Z,73.79
2022-10-19T10:52:15.675Z,74.12
2022-10-19T10:55:17.834Z,73.81
2022-10-19T10:57:53.896Z,73.89
2022-10-19T11:00:24.684Z,73.80
2022-10-19T11:03:00.975Z,73.45
2022-10-19T11:05:45.339Z,73.66
2022-10-19T11:08:34.143Z,73.87
2022-10-19T11:11:28.028Z,73.84
2022-10-19T11:14:26.846Z,73.59
2022-10-19T11:17:02.501Z,73.95
2022-10-19T11:19:44.537Z,73.22
2022-10-19T11:22:29.269Z,73.20
2022-10-19T11:25:15.131Z,73.13
2022-10-19T11:27:58.937Z,73.39
2022-10-19T11:30:27.747Z,73.17
2022-10-19T11:33:23.042Z,72.60
2022-10-19T11:35:58.347Z,73.00
2022-10-19T11:39:17.816Z,72.30
2022-10-19T11:42:16.871Z,72.51
2022-10-19T11:45:14.130Z,72.79
2022-10-19T11:48:09.390Z,72.51
2022-10-19T11:51:16.816Z,72.46
2022-10-19T11:54:25.212Z,72.64
2022-10-19T11:57:03.992Z,72.23
2022-10-19T12:00:15.221Z,71.58
2022-10-19T12:03:26.534Z,71.13
2022-10-19T12:06:11.888Z,70.90
2022-10-19T12:09:04.901Z,71.28
2022-10-19T12:12:07.491Z,71.40
2022-10-19T12:14:41.495Z,71.56
2022-10-19T12:17:18.647Z,71.86
2022-10-19T12:19:53.274Z,72.16
2022-10-19T12:22:29.154Z,71.65
2022-10-19T12:25:01.552Z,71.21
2022-10-19T12:27:40.811Z,70.95
2022-10-19T12:30:15.285Z,70.77
2022-10-19T12:33:03.572Z,70.88
2022-10-19T12:35:58.345Z,70.84
2022-10-19T12:38:43.946Z,70.67
2022-10-19T12:41:40.008Z,69.32
2022-10-19T12:44:51.797Z,69.25
2022-10-19T12:47:25.055Z,69.76
2022-10-19T12:49:55.664Z,69.73
2022-10-19T12:52:41.159Z,68.80
2022-10-19T12:55:17.773Z,68.62
2022-10-19T12:57:55.868Z,69.28
2022-10-19T13:00:29.077Z,68.71
2022-10-19T13:03:13.700Z,68.56
2022-10-19T13:05:42.156Z,68.23
2022-10-19T13:08:29.832Z,68.93
2022-10-19T13:11:15.219Z,68.90
2022-10-19T13:13:55.018Z,68.60
2022-10-19T13:16:29.089Z,68.84
2022-10-19T13:19:00.069Z,69.30
2022-10-19T13:21:51.219Z,69.50
2022-10-19T13:24:24.901Z,69.36
2022-10-19T13:27:04.646Z,68.95
2022-10-19T13:29:39.707Z,69.42
2022-10-19T13:32:31.124Z,69.75
2022-10-19T13:35:36.016Z,69.73
2022-10-19T13:38:12.913Z,69.22
2022-10-19T13:41:25.984Z,69.40
2022-10-19T13:44:08.811Z,69.56
2022-10-19T13:47:05.520Z,69.71
2022-10-19T13:49:56.145Z,69.27
2022-10-19T13:52:47.096Z,69.61
2022-10-19T13:55:51.705Z,69.37
2022-10-19T13:58:53.464Z,69.57
2022-10-19T14:01:21.355Z,69.75
2022-10-19T14:04:01.308Z,69.96
2022-10-19T14:06:40.915Z,69.94
2022-10-19T14:09:23.943Z,69.73
2022-10-19T14:11:54.594Z,70.04
2022-10-19T14:14:24.931Z,69.78
2022-10-19T14:17:03.072Z,70.11
2022-10-19T14:19:42.526Z,70.09
2022-10-19T14:22:30.129Z,70.03
2022-10-19T14:25:13.909Z,69.90
2022-10-19T14:27:42.103Z,70.18
2022-10-19T14:30:33.856Z,70.44
2022-10-19T14:33:09.314Z,70.28
2022-10-19T14:35:41.754Z,70.36
2022-10-19T14:38:21.752Z,70.56
2022-10-19T14:40:49.625Z,70.45
2022-10-19T14:43:24.445Z,70.35
2022-10-19T14:46:07.505Z,70.16
2022-10-19T14:48:39.353Z,70.09
2022-10-19T14:51:43.305Z,70.48
2022-10-19T14:54:38.995Z,70.47
2022-10-19T14:57:19.035Z,70.65
2022-10-19T14:59:55.002Z,70.83
2022-10-19T15:02:34.055Z,71.26
2022-10-19T15:05:05.358Z,71.52
2022-10-19T15:07:41.782Z,71.39
2022-10-19T15:10:42.970Z,71.63
2022-10-19T15:13:31.696Z,71.52
2022-10-19T15:15:59.832Z,71.66
2022-10-19T15:18:48.636Z,71.32
2022-10-19T15:21:21.820Z,71.71
2022-10-19T15:23:52.504Z,71.73
2022-10-19T15:26:26.436Z,71.96
2022-10-19T15:29:08.055Z,72.17
2022-10-19T15:31:36.247Z,72.42
2022-10-19T15:34:05.422Z,72.63
2022-10-19T15:36:33.803Z,72.58
2022-10-19T15:39:24.968Z,72.67
2022-10-19T15:41:53.686Z,72.55
2022-10-19T15:44:40.605Z,72.58
2022-10-19T15:47:21.764Z,72.75
2022-10-19T15:49:52.501Z,73.00
2022-10-19T15:52:23.759Z,73.23
2022-10-19T15:54:56.666Z,73.39
2022-10-19T15:57:38.161Z,73.58
2022-10-19T16:00:09.037Z,73.82
2022-10-19T16:02:36.839Z,73.91
2022-10-19T16:07:40.171Z,73.97
2022-10-19T16:10:16.113Z,74.08
2022-10-19T16:12:44.264Z,74.19
2022-10-19T16:15:17.447Z,74.31
2022-10-19T16:17:48.927Z,74.54
2022-10-19T16:20:18.047Z,74.66
2022-10-19T16:22:47.733Z,74.87
2022-10-19T16:25:16.242Z,75.01
2022-10-19T16:27:44.301Z,75.14
2022-10-19T16:30:13.655Z,75.34
2022-10-19T16:35:14.376Z,75.70
2022-10-19T16:37:42.324Z,75.99
2022-10-19T16:40:10.823Z,76.13
2022-10-19T16:42:38.855Z,76.25
2022-10-19T16:45:08.025Z,76.68
2022-10-19T16:47:36.092Z,76.79
2022-10-19T16:50:06.455Z,76.84
2022-10-19T16:52:34.716Z,77.11
2022-10-19T16:55:03.155Z,77.22
2022-10-19T16:57:31.024Z,77.26
2022-10-19T16:59:58.877Z,77.80
2022-10-19T17:02:26.777Z,77.93
2022-10-19T17:04:54.632Z,77.97
2022-10-19T17:07:22.870Z,78.14
2022-10-19T17:09:54.501Z,78.25
2022-10-19T17:12:22.935Z,78.43
2022-10-19T17:14:51.320Z,78.58
2022-10-19T17:17:19.339Z,78.57
2022-10-19T17:19:48.289Z,78.67
2022-10-19T17:22:16.298Z,78.81
2022-10-19T17:24:46.305Z,78.85
2022-10-19T17:27:14.704Z,78.94
2022-10-19T17:29:43.378Z,78.95
2022-10-19T17:32:11.248Z,79.31
2022-10-19T17:34:39.093Z,79.40
2022-10-19T17:37:06.950Z,79.55
2022-10-19T17:39:34.858Z,79.68
2022-10-19T17:42:04.287Z,79.57
2022-10-19T17:44:32.283Z,79.63
2022-10-19T17:47:01.298Z,79.69
2022-10-19T17:49:30.032Z,79.95
2022-10-19T17:51:58.661Z,80.09
2022-10-19T17:54:26.866Z,80.19
2022-10-19T17:56:54.912Z,80.33
2022-10-19T17:59:34.703Z,80.24
2022-10-19T18:02:06.362Z,80.22
2022-10-19T18:07:07.760Z,80.56
2022-10-19T18:09:35.636Z,80.52
2022-10-19T18:12:04.889Z,80.47
2022-10-19T18:14:35.338Z,80.84
2022-10-19T18:17:03.292Z,80.53
2022-10-19T18:19:31.924Z,80.52
2022-10-19T18:21:59.804Z,80.72
2022-10-19T18:24:28.143Z,80.77
2022-10-19T18:26:56.188Z,80.83
2022-10-19T18:29:26.602Z,80.74
2022-10-19T18:31:55.073Z,80.73
2022-10-19T18:34:26.452Z,80.78
2022-10-19T18:36:54.723Z,80.71
2022-10-19T18:39:23.383Z,80.78
2022-10-19T18:41:56.419Z,80.85
2022-10-19T18:44:26.670Z,80.88
2022-10-19T18:46:56.959Z,80.96
2022-10-19T18:49:25.782Z,80.98
2022-10-19T18:51:55.789Z,80.98
2022-10-19T18:54:26.392Z,80.96
2022-10-19T18:56:55.537Z,81.03
2022-10-19T18:59:23.611Z,81.01
2022-10-19T19:01:52.071Z,81.00
2022-10-19T19:04:20.242Z,81.02
2022-10-19T19:06:48.140Z,80.92
2022-10-19T19:09:17.485Z,81.03
2022-10-19T19:11:45.691Z,80.96
2022-10-19T19:14:18.251Z,81.05
2022-10-19T19:16:46.824Z,81.01
2022-10-19T19:19:18.457Z,81.09
2022-10-19T19:21:47.436Z,81.11
2022-10-19T19:24:20.268Z,81.10
2022-10-19T19:26:52.608Z,81.09
2022-10-19T19:29:22.349Z,81.26
2022-10-19T19:31:51.670Z,81.34
2022-10-19T19:34:19.837Z,81.20
2022-10-19T19:36:48.742Z,81.16
2022-10-19T19:39:20.349Z,81.25
2022-10-19T19:41:50.096Z,81.17
2022-10-19T19:44:18.904Z,81.31
2022-10-19T19:46:47.472Z,81.32
2022-10-19T19:49:15.736Z,81.29
2022-10-19T19:51:43.943Z,81.32
2022-10-19T19:54:11.971Z,81.31
2022-10-19T19:56:42.516Z,81.49
2022-10-19T19:59:13.858Z,81.62
2022-10-19T20:01:42.874Z,81.57
2022-10-19T20:04:12.360Z,81.55
2022-10-19T20:06:41.203Z,81.59
2022-10-19T20:09:10.717Z,81.72
2022-10-19T20:11:42.411Z,81.66
2022-10-19T20:14:12.791Z,81.68
2022-10-19T20:16:41.002Z,81.58
2022-10-19T20:19:14.406Z,81.57
2022-10-19T20:21:43.796Z,81.62
2022-10-19T20:24:12.956Z,81.64
2022-10-19T20:26:41.684Z,81.70
2022-10-19T20:29:09.864Z,81.79
2022-10-19T20:31:41.400Z,81.73
2022-10-19T20:34:13.654Z,81.74
2022-10-19T20:36:42.162Z,81.72
2022-10-19T20:39:10.572Z,81.73
2022-10-19T20:41:39.444Z,81.71
2022-10-19T20:44:08.352Z,81.79
2022-10-19T20:46:37.142Z,82.00
2022-10-19T20:49:05.367Z,82.03
2022-10-19T20:51:39.064Z,82.12
2022-10-19T20:54:12.268Z,82.16
2022-10-19T20:56:42.106Z,82.20
2022-10-19T20:59:19.907Z,82.48
2022-10-19T21:01:53.851Z,82.52
2022-10-19T21:04:23.408Z,82.59
2022-10-19T21:06:52.835Z,82.78
2022-10-19T21:09:23.676Z,82.99
2022-10-19T21:11:52.686Z,83.13
2022-10-19T21:14:28.415Z,83.08
2022-10-19T21:16:59.054Z,83.02
2022-10-19T21:19:29.918Z,82.99
2022-10-19T21:22:02.281Z,83.01
2022-10-19T21:24:34.227Z,82.98
2022-10-19T21:27:09.091Z,83.01
2022-10-19T21:29:37.400Z,82.97
2022-10-19T21:32:05.499Z,82.89
2022-10-19T21:34:33.504Z,82.83
2022-10-19T21:37:01.452Z,82.77
2022-10-19T21:39:29.295Z,82.68
2022-10-19T21:41:58.084Z,82.68
2022-10-19T21:44:26.158Z,82.72
2022-10-19T21:46:54.244Z,82.62
2022-10-19T21:49:22.213Z,82.63
2022-10-19T21:51:54.471Z,82.68
2022-10-19T21:54:25.453Z,82.71
2022-10-19T21:56:55.087Z,82.71
2022-10-19T21:59:23.100Z,82.66
2022-10-19T22:01:51.065Z,82.67
2022-10-19T22:04:19.257Z,82.64
2022-10-19T22:06:47.939Z,82.64
2022-10-19T22:09:20.820Z,82.61
2022-10-19T22:11:48.986Z,82.69
2022-10-19T22:14:17.535Z,82.63
2022-10-19T22:16:45.847Z,82.63
2022-10-19T22:19:14.202Z,82.62
2022-10-19T22:21:42.248Z,82.66
2022-10-19T22:24:15.599Z,82.69
2022-10-19T22:26:47.459Z,82.71
2022-10-19T22:29:15.867Z,82.77
2022-10-19T22:31:44.110Z,82.74
2022-10-19T22:34:16.842Z,82.74
2022-10-19T22:36:45.605Z,82.77
2022-10-19T22:39:16.457Z,82.76
2022-10-19T22:42:31.045Z,82.71
2022-10-19T22:44:59.074Z,82.70
2022-10-19T22:53:47.654Z,82.74
2022-10-19T22:56:15.678Z,82.69
2022-10-19T22:58:43.795Z,82.46
2022-10-19T23:01:15.337Z,82.43
2022-10-19T23:03:43.939Z,82.39
2022-10-19T23:06:14.785Z,82.50
2022-10-19T23:08:44.769Z,82.57
2022-10-19T23:11:13.530Z,82.62
2022-10-19T23:13:41.860Z,82.62
2022-10-19T23:16:10.197Z,82.73
2022-10-19T23:18:41.048Z,82.80
2022-10-19T23:21:13.630Z,82.77
2022-10-19T23:23:42.352Z,82.77
2022-10-19T23:26:17.976Z,82.69
2022-10-19T23:28:49.335Z,82.69
2022-10-19T23:31:26.657Z,82.81
2022-10-19T23:33:55.041Z,82.86
2022-10-19T23:36:28.350Z,82.85
2022-10-19T23:38:58.566Z,82.83
2022-10-19T23:41:26.824Z,82.78
2022-10-19T23:43:54.842Z,82.87
2022-10-19T23:46:22.782Z,82.96
2022-10-19T23:48:50.828Z,83.01
2022-10-19T23:51:21.268Z,83.04
2022-10-19T23:53:52.230Z,83.07
2022-10-19T23:56:27.266Z,83.16
2022-10-19T23:58:56.483Z,83.20
